sensor_id;sensor_type;location;lat;lon;timestamp;P1;durP1;ratioP1;P2;durP2;ratioP2
63346;SDS011;49472;49.880;8.650;2024-03-06T00:02:12;23.00;;;21.00;;
63346;SDS011;49472;49.880;8.650;2024-03-06T00:04:37;21.87;;;20.07;;
63346;SDS011;49472;49.880;8.650;2024-03-06T00:07:03;22.90;;;20.53;;
63346;SDS011;49472;49.880;8.650;2024-03-06T00:09:29;22.43;;;20.13;;
63346;SDS011;49472;49.880;8.650;2024-03-06T00:11:54;32.73;;;20.90;;
63346;SDS011;49472;49.880;8.650;2024-03-06T00:14:20;22.90;;;20.60;;
63346;SDS011;49472;49.880;8.650;2024-03-06T00:16:46;21.93;;;19.70;;
63346;SDS011;49472;49.880;8.650;2024-03-06T00:19:12;23.57;;;21.33;;
63346;SDS011;49472;49.880;8.650;2024-03-06T00:21:38;22.50;;;20.60;;
63346;SDS011;49472;49.880;8.650;2024-03-06T00:24:03;22.50;;;20.60;;
63346;SDS011;49472;49.880;8.650;2024-03-06T00:26:29;24.30;;;20.43;;
63346;SDS011;49472;49.880;8.650;2024-03-06T00:28:54;22.43;;;20.30;;
63346;SDS011;49472;49.880;8.650;2024-03-06T00:31:19;22.70;;;20.47;;
63346;SDS011;49472;49.880;8.650;2024-03-06T00:33:44;23.60;;;21.23;;
63346;SDS011;49472;49.880;8.650;2024-03-06T00:36:09;23.10;;;21.00;;
63346;SDS011;49472;49.880;8.650;2024-03-06T00:38:35;22.70;;;20.60;;
63346;SDS011;49472;49.880;8.650;2024-03-06T00:41:00;22.90;;;20.50;;
63346;SDS011;49472;49.880;8.650;2024-03-06T00:43:25;24.00;;;21.50;;
63346;SDS011;49472;49.880;8.650;2024-03-06T00:45:50;24.63;;;22.30;;
63346;SDS011;49472;49.880;8.650;2024-03-06T00:48:16;23.90;;;21.57;;
63346;SDS011;49472;49.880;8.650;2024-03-06T00:50:41;26.23;;;23.40;;
63346;SDS011;49472;49.880;8.650;2024-03-06T00:53:06;23.70;;;21.40;;
63346;SDS011;49472;49.880;8.650;2024-03-06T00:55:31;22.77;;;20.87;;
63346;SDS011;49472;49.880;8.650;2024-03-06T00:57:57;23.60;;;20.97;;
63346;SDS011;49472;49.880;8.650;2024-03-06T01:00:22;23.63;;;21.33;;
63346;SDS011;49472;49.880;8.650;2024-03-06T01:02:47;22.83;;;20.63;;
63346;SDS011;49472;49.880;8.650;2024-03-06T01:05:12;24.63;;;21.47;;
63346;SDS011;49472;49.880;8.650;2024-03-06T01:07:38;23.60;;;21.20;;
63346;SDS011;49472;49.880;8.650;2024-03-06T01:10:04;23.90;;;21.90;;
63346;SDS011;49472;49.880;8.650;2024-03-06T01:12:31;23.10;;;20.80;;
63346;SDS011;49472;49.880;8.650;2024-03-06T01:14:56;22.37;;;20.37;;
63346;SDS011;49472;49.880;8.650;2024-03-06T01:17:21;28.23;;;21.00;;
63346;SDS011;49472;49.880;8.650;2024-03-06T01:19:47;21.37;;;19.53;;
63346;SDS011;49472;49.880;8.650;2024-03-06T01:22:12;21.90;;;20.03;;
63346;SDS011;49472;49.880;8.650;2024-03-06T01:24:40;22.10;;;20.20;;
63346;SDS011;49472;49.880;8.650;2024-03-06T01:27:05;23.00;;;20.50;;
63346;SDS011;49472;49.880;8.650;2024-03-06T01:29:31;22.87;;;20.77;;
63346;SDS011;49472;49.880;8.650;2024-03-06T01:31:56;23.17;;;20.77;;
63346;SDS011;49472;49.880;8.650;2024-03-06T01:34:21;26.07;;;21.00;;
63346;SDS011;49472;49.880;8.650;2024-03-06T01:36:50;23.90;;;21.30;;
63346;SDS011;49472;49.880;8.650;2024-03-06T01:39:15;27.63;;;22.00;;
63346;SDS011;49472;49.880;8.650;2024-03-06T01:41:47;21.83;;;19.97;;
63346;SDS011;49472;49.880;8.650;2024-03-06T01:44:13;29.03;;;21.10;;
63346;SDS011;49472;49.880;8.650;2024-03-06T01:46:38;23.47;;;21.30;;
63346;SDS011;49472;49.880;8.650;2024-03-06T01:49:04;22.60;;;20.70;;
63346;SDS011;49472;49.880;8.650;2024-03-06T01:51:29;24.70;;;22.10;;
63346;SDS011;49472;49.880;8.650;2024-03-06T01:53:54;23.00;;;20.90;;
63346;SDS011;49472;49.880;8.650;2024-03-06T01:56:20;24.10;;;20.57;;
63346;SDS011;49472;49.880;8.650;2024-03-06T01:58:45;22.07;;;20.17;;
63346;SDS011;49472;49.880;8.650;2024-03-06T02:01:11;25.43;;;22.70;;
63346;SDS011;49472;49.880;8.650;2024-03-06T02:03:37;22.67;;;20.77;;
63346;SDS011;49472;49.880;8.650;2024-03-06T02:06:02;23.17;;;20.63;;
63346;SDS011;49472;49.880;8.650;2024-03-06T02:08:27;23.67;;;21.30;;
63346;SDS011;49472;49.880;8.650;2024-03-06T02:10:52;23.73;;;21.20;;
63346;SDS011;49472;49.880;8.650;2024-03-06T02:13:17;21.53;;;19.60;;
63346;SDS011;49472;49.880;8.650;2024-03-06T02:15:44;22.83;;;20.80;;
63346;SDS011;49472;49.880;8.650;2024-03-06T02:18:10;22.30;;;20.30;;
63346;SDS011;49472;49.880;8.650;2024-03-06T02:20:37;24.80;;;20.87;;
63346;SDS011;49472;49.880;8.650;2024-03-06T02:23:02;23.97;;;20.23;;
63346;SDS011;49472;49.880;8.650;2024-03-06T02:25:28;22.40;;;20.13;;
63346;SDS011;49472;49.880;8.650;2024-03-06T02:27:53;22.53;;;20.27;;
63346;SDS011;49472;49.880;8.650;2024-03-06T02:30:21;23.50;;;21.17;;
63346;SDS011;49472;49.880;8.650;2024-03-06T02:32:46;22.83;;;20.73;;
63346;SDS011;49472;49.880;8.650;2024-03-06T02:35:11;22.33;;;20.27;;
63346;SDS011;49472;49.880;8.650;2024-03-06T02:37:37;23.17;;;20.93;;
63346;SDS011;49472;49.880;8.650;2024-03-06T02:40:03;24.33;;;21.90;;
63346;SDS011;49472;49.880;8.650;2024-03-06T02:42:28;24.80;;;21.33;;
63346;SDS011;49472;49.880;8.650;2024-03-06T02:44:54;25.63;;;21.23;;
63346;SDS011;49472;49.880;8.650;2024-03-06T02:47:19;24.00;;;21.70;;
63346;SDS011;49472;49.880;8.650;2024-03-06T02:49:44;22.40;;;19.93;;
63346;SDS011;49472;49.880;8.650;2024-03-06T02:52:10;23.17;;;20.97;;
63346;SDS011;49472;49.880;8.650;2024-03-06T02:54:35;24.43;;;21.30;;
63346;SDS011;49472;49.880;8.650;2024-03-06T02:57:00;29.50;;;22.57;;
63346;SDS011;49472;49.880;8.650;2024-03-06T02:59:25;23.37;;;21.37;;
63346;SDS011;49472;49.880;8.650;2024-03-06T03:01:51;22.97;;;20.67;;
63346;SDS011;49472;49.880;8.650;2024-03-06T03:04:16;22.67;;;20.57;;
63346;SDS011;49472;49.880;8.650;2024-03-06T03:06:42;27.77;;;21.43;;
63346;SDS011;49472;49.880;8.650;2024-03-06T03:09:07;22.63;;;20.30;;
63346;SDS011;49472;49.880;8.650;2024-03-06T03:11:36;22.57;;;20.73;;
63346;SDS011;49472;49.880;8.650;2024-03-06T03:14:01;22.80;;;20.70;;
63346;SDS011;49472;49.880;8.650;2024-03-06T03:16:26;22.30;;;19.70;;
63346;SDS011;49472;49.880;8.650;2024-03-06T03:18:52;23.43;;;20.97;;
63346;SDS011;49472;49.880;8.650;2024-03-06T03:21:17;24.20;;;21.90;;
63346;SDS011;49472;49.880;8.650;2024-03-06T03:23:42;22.17;;;20.20;;
63346;SDS011;49472;49.880;8.650;2024-03-06T03:26:08;22.13;;;20.03;;
63346;SDS011;49472;49.880;8.650;2024-03-06T03:28:37;24.70;;;22.30;;
63346;SDS011;49472;49.880;8.650;2024-03-06T03:31:02;22.60;;;20.63;;
63346;SDS011;49472;49.880;8.650;2024-03-06T03:33:27;20.97;;;19.23;;
63346;SDS011;49472;49.880;8.650;2024-03-06T03:35:52;22.67;;;20.80;;
63346;SDS011;49472;49.880;8.650;2024-03-06T03:38:17;22.87;;;20.40;;
63346;SDS011;49472;49.880;8.650;2024-03-06T03:40:43;23.30;;;20.77;;
63346;SDS011;49472;49.880;8.650;2024-03-06T03:43:08;22.43;;;20.43;;
63346;SDS011;49472;49.880;8.650;2024-03-06T03:45:33;22.90;;;20.80;;
63346;SDS011;49472;49.880;8.650;2024-03-06T03:48:00;22.17;;;20.17;;
63346;SDS011;49472;49.880;8.650;2024-03-06T03:50:25;21.83;;;19.93;;
63346;SDS011;49472;49.880;8.650;2024-03-06T03:52:50;21.83;;;19.87;;
63346;SDS011;49472;49.880;8.650;2024-03-06T03:55:15;24.10;;;21.90;;
63346;SDS011;49472;49.880;8.650;2024-03-06T03:57:41;24.77;;;22.13;;
63346;SDS011;49472;49.880;8.650;2024-03-06T04:00:06;22.60;;;20.27;;
63346;SDS011;49472;49.880;8.650;2024-03-06T04:02:35;23.70;;;21.20;;
63346;SDS011;49472;49.880;8.650;2024-03-06T04:05:01;23.10;;;21.00;;
63346;SDS011;49472;49.880;8.650;2024-03-06T04:07:26;22.77;;;20.60;;
63346;SDS011;49472;49.880;8.650;2024-03-06T04:09:51;22.07;;;19.97;;
63346;SDS011;49472;49.880;8.650;2024-03-06T04:12:16;23.93;;;21.63;;
63346;SDS011;49472;49.880;8.650;2024-03-06T04:14:41;25.50;;;22.90;;
63346;SDS011;49472;49.880;8.650;2024-03-06T04:17:07;24.40;;;21.90;;
63346;SDS011;49472;49.880;8.650;2024-03-06T04:19:32;24.23;;;21.77;;
63346;SDS011;49472;49.880;8.650;2024-03-06T04:21:57;23.27;;;21.17;;
63346;SDS011;49472;49.880;8.650;2024-03-06T04:24:23;24.63;;;22.23;;
63346;SDS011;49472;49.880;8.650;2024-03-06T04:26:48;26.20;;;20.60;;
63346;SDS011;49472;49.880;8.650;2024-03-06T04:29:13;23.63;;;21.13;;
63346;SDS011;49472;49.880;8.650;2024-03-06T04:31:38;24.17;;;21.80;;
63346;SDS011;49472;49.880;8.650;2024-03-06T04:34:03;23.97;;;21.70;;
63346;SDS011;49472;49.880;8.650;2024-03-06T04:36:28;23.13;;;21.03;;
63346;SDS011;49472;49.880;8.650;2024-03-06T04:38:54;23.13;;;20.80;;
63346;SDS011;49472;49.880;8.650;2024-03-06T04:41:19;23.23;;;20.97;;
63346;SDS011;49472;49.880;8.650;2024-03-06T04:43:44;25.60;;;21.53;;
63346;SDS011;49472;49.880;8.650;2024-03-06T04:46:13;22.63;;;20.47;;
63346;SDS011;49472;49.880;8.650;2024-03-06T04:48:39;21.80;;;19.80;;
63346;SDS011;49472;49.880;8.650;2024-03-06T04:51:04;21.87;;;19.87;;
63346;SDS011;49472;49.880;8.650;2024-03-06T04:53:29;21.50;;;19.80;;
63346;SDS011;49472;49.880;8.650;2024-03-06T04:55:54;23.47;;;19.30;;
63346;SDS011;49472;49.880;8.650;2024-03-06T04:58:19;20.83;;;19.03;;
63346;SDS011;49472;49.880;8.650;2024-03-06T05:00:45;21.70;;;19.50;;
63346;SDS011;49472;49.880;8.650;2024-03-06T05:03:10;21.70;;;19.77;;
63346;SDS011;49472;49.880;8.650;2024-03-06T05:05:35;22.03;;;20.03;;
63346;SDS011;49472;49.880;8.650;2024-03-06T05:08:01;22.97;;;20.63;;
63346;SDS011;49472;49.880;8.650;2024-03-06T05:10:26;22.03;;;20.30;;
63346;SDS011;49472;49.880;8.650;2024-03-06T05:12:52;22.23;;;20.20;;
63346;SDS011;49472;49.880;8.650;2024-03-06T05:15:17;21.30;;;19.50;;
63346;SDS011;49472;49.880;8.650;2024-03-06T05:17:44;21.30;;;19.60;;
63346;SDS011;49472;49.880;8.650;2024-03-06T05:20:09;22.47;;;20.17;;
63346;SDS011;49472;49.880;8.650;2024-03-06T05:22:35;22.60;;;20.33;;
63346;SDS011;49472;49.880;8.650;2024-03-06T05:25:00;20.90;;;19.20;;
63346;SDS011;49472;49.880;8.650;2024-03-06T05:27:25;23.33;;;20.40;;
63346;SDS011;49472;49.880;8.650;2024-03-06T05:29:51;22.47;;;20.37;;
63346;SDS011;49472;49.880;8.650;2024-03-06T05:32:17;21.03;;;19.03;;
63346;SDS011;49472;49.880;8.650;2024-03-06T05:34:42;21.90;;;20.00;;
63346;SDS011;49472;49.880;8.650;2024-03-06T05:37:07;21.80;;;19.87;;
63346;SDS011;49472;49.880;8.650;2024-03-06T05:39:32;23.27;;;21.00;;
63346;SDS011;49472;49.880;8.650;2024-03-06T05:42:02;21.50;;;19.47;;
63346;SDS011;49472;49.880;8.650;2024-03-06T05:44:28;24.23;;;21.80;;
63346;SDS011;49472;49.880;8.650;2024-03-06T05:46:53;23.17;;;21.17;;
63346;SDS011;49472;49.880;8.650;2024-03-06T05:49:18;21.87;;;19.90;;
63346;SDS011;49472;49.880;8.650;2024-03-06T05:51:44;24.90;;;22.43;;
63346;SDS011;49472;49.880;8.650;2024-03-06T05:54:10;23.83;;;21.37;;
63346;SDS011;49472;49.880;8.650;2024-03-06T05:56:35;23.53;;;20.60;;
63346;SDS011;49472;49.880;8.650;2024-03-06T05:59:00;23.70;;;21.50;;
63346;SDS011;49472;49.880;8.650;2024-03-06T06:01:29;23.73;;;21.23;;
63346;SDS011;49472;49.880;8.650;2024-03-06T06:03:54;23.40;;;21.20;;
63346;SDS011;49472;49.880;8.650;2024-03-06T06:06:20;23.50;;;21.47;;
63346;SDS011;49472;49.880;8.650;2024-03-06T06:08:45;26.37;;;21.23;;
63346;SDS011;49472;49.880;8.650;2024-03-06T06:11:11;23.93;;;21.30;;
63346;SDS011;49472;49.880;8.650;2024-03-06T06:13:36;23.93;;;21.67;;
63346;SDS011;49472;49.880;8.650;2024-03-06T06:16:01;22.57;;;20.67;;
63346;SDS011;49472;49.880;8.650;2024-03-06T06:18:28;21.67;;;19.97;;
63346;SDS011;49472;49.880;8.650;2024-03-06T06:20:53;28.20;;;21.47;;
63346;SDS011;49472;49.880;8.650;2024-03-06T06:23:18;24.00;;;21.90;;
63346;SDS011;49472;49.880;8.650;2024-03-06T06:25:46;24.60;;;22.30;;
63346;SDS011;49472;49.880;8.650;2024-03-06T06:28:12;23.80;;;21.57;;
63346;SDS011;49472;49.880;8.650;2024-03-06T06:30:37;22.60;;;20.60;;
63346;SDS011;49472;49.880;8.650;2024-03-06T06:33:03;24.10;;;21.70;;
63346;SDS011;49472;49.880;8.650;2024-03-06T06:35:28;25.73;;;22.07;;
63346;SDS011;49472;49.880;8.650;2024-03-06T06:37:53;24.53;;;22.10;;
63346;SDS011;49472;49.880;8.650;2024-03-06T06:40:18;24.77;;;22.47;;
63346;SDS011;49472;49.880;8.650;2024-03-06T06:42:45;24.67;;;22.30;;
63346;SDS011;49472;49.880;8.650;2024-03-06T06:45:14;24.23;;;21.80;;
63346;SDS011;49472;49.880;8.650;2024-03-06T06:47:39;25.23;;;22.97;;
63346;SDS011;49472;49.880;8.650;2024-03-06T06:50:05;25.37;;;22.60;;
63346;SDS011;49472;49.880;8.650;2024-03-06T06:52:30;26.40;;;22.20;;
63346;SDS011;49472;49.880;8.650;2024-03-06T06:54:58;23.40;;;21.07;;
63346;SDS011;49472;49.880;8.650;2024-03-06T06:57:23;25.77;;;23.23;;
63346;SDS011;49472;49.880;8.650;2024-03-06T06:59:48;25.60;;;23.13;;
63346;SDS011;49472;49.880;8.650;2024-03-06T07:02:13;33.40;;;22.57;;
63346;SDS011;49472;49.880;8.650;2024-03-06T07:04:39;23.87;;;21.37;;
63346;SDS011;49472;49.880;8.650;2024-03-06T07:07:04;24.43;;;22.03;;
63346;SDS011;49472;49.880;8.650;2024-03-06T07:09:29;22.93;;;20.60;;
63346;SDS011;49472;49.880;8.650;2024-03-06T07:11:55;21.47;;;19.73;;
63346;SDS011;49472;49.880;8.650;2024-03-06T07:14:21;23.10;;;20.70;;
63346;SDS011;49472;49.880;8.650;2024-03-06T07:16:46;22.00;;;19.90;;
63346;SDS011;49472;49.880;8.650;2024-03-06T07:19:12;22.57;;;20.57;;
63346;SDS011;49472;49.880;8.650;2024-03-06T07:21:37;23.30;;;21.10;;
63346;SDS011;49472;49.880;8.650;2024-03-06T07:24:03;20.93;;;19.30;;
63346;SDS011;49472;49.880;8.650;2024-03-06T07:26:29;22.60;;;20.80;;
63346;SDS011;49472;49.880;8.650;2024-03-06T07:28:55;23.17;;;20.83;;
63346;SDS011;49472;49.880;8.650;2024-03-06T07:31:20;22.17;;;20.17;;
63346;SDS011;49472;49.880;8.650;2024-03-06T07:33:45;20.30;;;18.43;;
63346;SDS011;49472;49.880;8.650;2024-03-06T07:36:10;20.77;;;19.00;;
63346;SDS011;49472;49.880;8.650;2024-03-06T07:38:35;21.57;;;19.73;;
63346;SDS011;49472;49.880;8.650;2024-03-06T07:41:01;20.60;;;18.87;;
63346;SDS011;49472;49.880;8.650;2024-03-06T07:43:26;21.67;;;19.87;;
63346;SDS011;49472;49.880;8.650;2024-03-06T07:45:51;22.70;;;20.60;;
63346;SDS011;49472;49.880;8.650;2024-03-06T07:48:16;23.40;;;21.07;;
63346;SDS011;49472;49.880;8.650;2024-03-06T07:50:42;22.57;;;20.07;;
63346;SDS011;49472;49.880;8.650;2024-03-06T07:53:07;23.00;;;20.93;;
63346;SDS011;49472;49.880;8.650;2024-03-06T07:55:32;23.40;;;21.40;;
63346;SDS011;49472;49.880;8.650;2024-03-06T07:57:57;23.67;;;21.60;;
63346;SDS011;49472;49.880;8.650;2024-03-06T08:00:23;21.47;;;19.67;;
63346;SDS011;49472;49.880;8.650;2024-03-06T08:02:48;22.70;;;20.60;;
63346;SDS011;49472;49.880;8.650;2024-03-06T08:05:17;22.73;;;20.53;;
63346;SDS011;49472;49.880;8.650;2024-03-06T08:07:42;23.57;;;21.20;;
63346;SDS011;49472;49.880;8.650;2024-03-06T08:10:11;22.87;;;20.93;;
63346;SDS011;49472;49.880;8.650;2024-03-06T08:12:42;22.80;;;20.50;;
63346;SDS011;49472;49.880;8.650;2024-03-06T08:15:09;25.70;;;21.83;;
63346;SDS011;49472;49.880;8.650;2024-03-06T08:17:34;22.73;;;20.40;;
63346;SDS011;49472;49.880;8.650;2024-03-06T08:20:00;24.00;;;21.87;;
63346;SDS011;49472;49.880;8.650;2024-03-06T08:22:25;24.57;;;21.80;;
63346;SDS011;49472;49.880;8.650;2024-03-06T08:24:50;23.87;;;21.63;;
63346;SDS011;49472;49.880;8.650;2024-03-06T08:27:15;24.60;;;22.33;;
63346;SDS011;49472;49.880;8.650;2024-03-06T08:29:41;27.73;;;24.87;;
63346;SDS011;49472;49.880;8.650;2024-03-06T08:32:06;30.00;;;25.87;;
63346;SDS011;49472;49.880;8.650;2024-03-06T08:34:31;28.07;;;25.07;;
63346;SDS011;49472;49.880;8.650;2024-03-06T08:36:56;27.43;;;24.63;;
63346;SDS011;49472;49.880;8.650;2024-03-06T08:39:23;27.13;;;24.30;;
63346;SDS011;49472;49.880;8.650;2024-03-06T08:41:48;27.07;;;23.43;;
63346;SDS011;49472;49.880;8.650;2024-03-06T08:44:13;32.30;;;25.90;;
63346;SDS011;49472;49.880;8.650;2024-03-06T08:46:39;32.80;;;25.27;;
63346;SDS011;49472;49.880;8.650;2024-03-06T08:49:04;25.97;;;23.50;;
63346;SDS011;49472;49.880;8.650;2024-03-06T08:51:30;25.90;;;23.30;;
63346;SDS011;49472;49.880;8.650;2024-03-06T08:53:56;25.17;;;22.63;;
63346;SDS011;49472;49.880;8.650;2024-03-06T08:56:22;34.97;;;27.10;;
63346;SDS011;49472;49.880;8.650;2024-03-06T08:58:47;33.03;;;26.73;;
63346;SDS011;49472;49.880;8.650;2024-03-06T09:01:12;29.20;;;26.13;;
63346;SDS011;49472;49.880;8.650;2024-03-06T09:03:38;29.77;;;26.63;;
63346;SDS011;49472;49.880;8.650;2024-03-06T09:06:03;33.93;;;26.40;;
63346;SDS011;49472;49.880;8.650;2024-03-06T09:08:28;31.43;;;27.90;;
63346;SDS011;49472;49.880;8.650;2024-03-06T09:10:53;36.67;;;28.97;;
63346;SDS011;49472;49.880;8.650;2024-03-06T09:13:19;36.70;;;29.63;;
63346;SDS011;49472;49.880;8.650;2024-03-06T09:15:44;31.63;;;28.20;;
63346;SDS011;49472;49.880;8.650;2024-03-06T09:18:09;41.57;;;31.60;;
63346;SDS011;49472;49.880;8.650;2024-03-06T09:20:34;38.57;;;31.80;;
63346;SDS011;49472;49.880;8.650;2024-03-06T09:23:00;42.50;;;32.93;;
63346;SDS011;49472;49.880;8.650;2024-03-06T09:25:25;37.93;;;33.30;;
63346;SDS011;49472;49.880;8.650;2024-03-06T09:27:50;40.13;;;34.80;;
63346;SDS011;49472;49.880;8.650;2024-03-06T09:30:15;38.70;;;34.60;;
63346;SDS011;49472;49.880;8.650;2024-03-06T09:32:41;37.33;;;33.40;;
63346;SDS011;49472;49.880;8.650;2024-03-06T09:35:07;40.20;;;32.67;;
63346;SDS011;49472;49.880;8.650;2024-03-06T09:37:32;37.80;;;33.80;;
63346;SDS011;49472;49.880;8.650;2024-03-06T09:39:57;37.40;;;32.57;;
63346;SDS011;49472;49.880;8.650;2024-03-06T09:42:22;38.53;;;33.13;;
63346;SDS011;49472;49.880;8.650;2024-03-06T09:44:48;35.37;;;31.50;;
63346;SDS011;49472;49.880;8.650;2024-03-06T09:47:13;34.77;;;31.13;;
63346;SDS011;49472;49.880;8.650;2024-03-06T09:49:41;36.90;;;31.43;;
63346;SDS011;49472;49.880;8.650;2024-03-06T09:52:07;38.23;;;31.87;;
63346;SDS011;49472;49.880;8.650;2024-03-06T09:54:33;49.13;;;31.03;;
63346;SDS011;49472;49.880;8.650;2024-03-06T09:56:58;41.97;;;32.67;;
63346;SDS011;49472;49.880;8.650;2024-03-06T09:59:24;34.73;;;31.20;;
63346;SDS011;49472;49.880;8.650;2024-03-06T10:04:24;38.10;;;34.00;;
63346;SDS011;49472;49.880;8.650;2024-03-06T10:06:50;36.00;;;32.30;;
63346;SDS011;49472;49.880;8.650;2024-03-06T10:09:18;34.27;;;30.67;;
63346;SDS011;49472;49.880;8.650;2024-03-06T10:11:43;36.60;;;32.57;;
63346;SDS011;49472;49.880;8.650;2024-03-06T10:14:09;49.30;;;34.40;;
63346;SDS011;49472;49.880;8.650;2024-03-06T10:16:35;48.20;;;35.50;;
63346;SDS011;49472;49.880;8.650;2024-03-06T10:19:16;46.23;;;31.37;;
63346;SDS011;49472;49.880;8.650;2024-03-06T10:21:43;37.27;;;32.07;;
63346;SDS011;49472;49.880;8.650;2024-03-06T10:24:10;39.03;;;33.43;;
63346;SDS011;49472;49.880;8.650;2024-03-06T10:26:36;35.93;;;32.17;;
63346;SDS011;49472;49.880;8.650;2024-03-06T10:29:01;38.43;;;32.40;;
63346;SDS011;49472;49.880;8.650;2024-03-06T10:31:27;39.37;;;33.83;;
63346;SDS011;49472;49.880;8.650;2024-03-06T10:33:52;39.70;;;35.40;;
63346;SDS011;49472;49.880;8.650;2024-03-06T10:36:18;42.70;;;36.73;;
63346;SDS011;49472;49.880;8.650;2024-03-06T10:38:43;40.93;;;34.33;;
63346;SDS011;49472;49.880;8.650;2024-03-06T10:41:10;41.63;;;33.23;;
63346;SDS011;49472;49.880;8.650;2024-03-06T10:43:38;36.83;;;33.03;;
63346;SDS011;49472;49.880;8.650;2024-03-06T10:46:05;38.77;;;34.10;;
63346;SDS011;49472;49.880;8.650;2024-03-06T10:48:31;44.43;;;36.33;;
63346;SDS011;49472;49.880;8.650;2024-03-06T10:50:56;39.57;;;35.27;;
63346;SDS011;49472;49.880;8.650;2024-03-06T10:53:22;38.47;;;34.37;;
63346;SDS011;49472;49.880;8.650;2024-03-06T10:55:51;40.73;;;35.07;;
63346;SDS011;49472;49.880;8.650;2024-03-06T10:58:16;38.90;;;34.80;;
63346;SDS011;49472;49.880;8.650;2024-03-06T11:00:47;37.07;;;32.87;;
63346;SDS011;49472;49.880;8.650;2024-03-06T11:03:12;36.07;;;32.27;;
63346;SDS011;49472;49.880;8.650;2024-03-06T11:05:38;38.87;;;33.60;;
63346;SDS011;49472;49.880;8.650;2024-03-06T11:08:05;36.80;;;32.40;;
63346;SDS011;49472;49.880;8.650;2024-03-06T11:10:33;35.00;;;31.40;;
63346;SDS011;49472;49.880;8.650;2024-03-06T11:12:58;41.70;;;34.23;;
63346;SDS011;49472;49.880;8.650;2024-03-06T11:15:23;47.67;;;34.10;;
63346;SDS011;49472;49.880;8.650;2024-03-06T11:17:49;36.50;;;32.67;;
63346;SDS011;49472;49.880;8.650;2024-03-06T11:28:08;34.73;;;30.97;;
63346;SDS011;49472;49.880;8.650;2024-03-06T11:30:34;39.03;;;30.80;;
63346;SDS011;49472;49.880;8.650;2024-03-06T11:33:12;34.87;;;31.27;;
63346;SDS011;49472;49.880;8.650;2024-03-06T11:35:37;34.53;;;30.80;;
63346;SDS011;49472;49.880;8.650;2024-03-06T11:38:04;33.90;;;30.20;;
63346;SDS011;49472;49.880;8.650;2024-03-06T11:40:31;31.10;;;27.77;;
63346;SDS011;49472;49.880;8.650;2024-03-06T11:42:56;36.73;;;29.57;;
63346;SDS011;49472;49.880;8.650;2024-03-06T11:45:21;31.53;;;28.40;;
63346;SDS011;49472;49.880;8.650;2024-03-06T11:50:21;31.33;;;28.20;;
63346;SDS011;49472;49.880;8.650;2024-03-06T11:52:46;31.37;;;28.10;;
63346;SDS011;49472;49.880;8.650;2024-03-06T11:55:12;37.30;;;28.37;;
63346;SDS011;49472;49.880;8.650;2024-03-06T11:57:38;30.13;;;26.93;;
63346;SDS011;49472;49.880;8.650;2024-03-06T12:00:04;32.53;;;29.03;;
63346;SDS011;49472;49.880;8.650;2024-03-06T12:02:32;31.07;;;27.90;;
63346;SDS011;49472;49.880;8.650;2024-03-06T12:04:57;29.87;;;26.80;;
63346;SDS011;49472;49.880;8.650;2024-03-06T12:07:27;31.93;;;28.63;;
63346;SDS011;49472;49.880;8.650;2024-03-06T12:09:52;31.00;;;27.70;;
63346;SDS011;49472;49.880;8.650;2024-03-06T12:12:18;31.10;;;28.07;;
63346;SDS011;49472;49.880;8.650;2024-03-06T12:14:43;31.83;;;28.63;;
63346;SDS011;49472;49.880;8.650;2024-03-06T12:17:12;33.77;;;27.40;;
63346;SDS011;49472;49.880;8.650;2024-03-06T12:19:38;31.63;;;28.40;;
63346;SDS011;49472;49.880;8.650;2024-03-06T12:22:03;31.40;;;28.30;;
63346;SDS011;49472;49.880;8.650;2024-03-06T12:24:33;31.43;;;28.20;;
63346;SDS011;49472;49.880;8.650;2024-03-06T12:27:04;32.90;;;28.83;;
63346;SDS011;49472;49.880;8.650;2024-03-06T12:29:30;33.40;;;29.90;;
63346;SDS011;49472;49.880;8.650;2024-03-06T12:31:57;31.67;;;28.37;;
63346;SDS011;49472;49.880;8.650;2024-03-06T12:34:22;32.07;;;28.90;;
63346;SDS011;49472;49.880;8.650;2024-03-06T12:36:47;31.90;;;28.70;;
63346;SDS011;49472;49.880;8.650;2024-03-06T12:39:14;33.80;;;30.37;;
63346;SDS011;49472;49.880;8.650;2024-03-06T12:41:42;38.13;;;31.60;;
63346;SDS011;49472;49.880;8.650;2024-03-06T12:44:07;32.23;;;28.90;;
63346;SDS011;49472;49.880;8.650;2024-03-06T12:46:32;35.90;;;32.10;;
63346;SDS011;49472;49.880;8.650;2024-03-06T12:48:58;35.47;;;31.87;;
63346;SDS011;49472;49.880;8.650;2024-03-06T12:51:23;34.77;;;30.97;;
63346;SDS011;49472;49.880;8.650;2024-03-06T12:53:48;32.63;;;29.27;;
63346;SDS011;49472;49.880;8.650;2024-03-06T12:56:13;33.67;;;30.27;;
63346;SDS011;49472;49.880;8.650;2024-03-06T12:58:39;34.30;;;30.70;;
63346;SDS011;49472;49.880;8.650;2024-03-06T13:01:04;32.63;;;29.23;;
63346;SDS011;49472;49.880;8.650;2024-03-06T13:03:30;34.43;;;30.83;;
63346;SDS011;49472;49.880;8.650;2024-03-06T13:05:56;35.30;;;31.57;;
63346;SDS011;49472;49.880;8.650;2024-03-06T13:08:22;35.73;;;31.90;;
63346;SDS011;49472;49.880;8.650;2024-03-06T13:10:47;37.17;;;33.10;;
63346;SDS011;49472;49.880;8.650;2024-03-06T13:13:12;39.77;;;32.80;;
63346;SDS011;49472;49.880;8.650;2024-03-06T13:15:37;38.50;;;34.10;;
63346;SDS011;49472;49.880;8.650;2024-03-06T13:18:03;35.47;;;31.73;;
63346;SDS011;49472;49.880;8.650;2024-03-06T13:20:32;37.50;;;32.70;;
63346;SDS011;49472;49.880;8.650;2024-03-06T13:22:58;39.53;;;32.17;;
63346;SDS011;49472;49.880;8.650;2024-03-06T13:25:23;37.20;;;31.87;;
63346;SDS011;49472;49.880;8.650;2024-03-06T13:27:49;41.47;;;34.63;;
63346;SDS011;49472;49.880;8.650;2024-03-06T13:30:14;37.47;;;32.00;;
63346;SDS011;49472;49.880;8.650;2024-03-06T13:32:40;36.83;;;32.80;;
63346;SDS011;49472;49.880;8.650;2024-03-06T13:35:05;37.87;;;33.77;;
63346;SDS011;49472;49.880;8.650;2024-03-06T13:37:41;41.77;;;34.30;;
63346;SDS011;49472;49.880;8.650;2024-03-06T13:40:09;39.60;;;32.87;;
63346;SDS011;49472;49.880;8.650;2024-03-06T13:42:36;38.23;;;34.10;;
63346;SDS011;49472;49.880;8.650;2024-03-06T13:45:01;40.47;;;35.63;;
63346;SDS011;49472;49.880;8.650;2024-03-06T13:47:26;61.67;;;35.30;;
63346;SDS011;49472;49.880;8.650;2024-03-06T13:49:52;46.50;;;34.83;;
63346;SDS011;49472;49.880;8.650;2024-03-06T13:52:17;39.30;;;34.50;;
63346;SDS011;49472;49.880;8.650;2024-03-06T13:54:45;39.60;;;33.50;;
63346;SDS011;49472;49.880;8.650;2024-03-06T13:57:10;44.87;;;35.90;;
63346;SDS011;49472;49.880;8.650;2024-03-06T13:59:36;41.13;;;35.10;;
63346;SDS011;49472;49.880;8.650;2024-03-06T14:02:02;42.23;;;33.70;;
63346;SDS011;49472;49.880;8.650;2024-03-06T14:04:31;41.37;;;35.33;;
63346;SDS011;49472;49.880;8.650;2024-03-06T14:06:57;45.10;;;34.60;;
63346;SDS011;49472;49.880;8.650;2024-03-06T14:09:22;44.10;;;34.60;;
63346;SDS011;49472;49.880;8.650;2024-03-06T14:11:48;42.17;;;34.27;;
63346;SDS011;49472;49.880;8.650;2024-03-06T14:14:14;39.67;;;32.27;;
63346;SDS011;49472;49.880;8.650;2024-03-06T14:16:39;38.63;;;34.17;;
63346;SDS011;49472;49.880;8.650;2024-03-06T14:19:05;37.27;;;32.50;;
63346;SDS011;49472;49.880;8.650;2024-03-06T14:21:30;39.00;;;33.93;;
63346;SDS011;49472;49.880;8.650;2024-03-06T14:23:59;35.77;;;31.97;;
63346;SDS011;49472;49.880;8.650;2024-03-06T14:26:24;36.90;;;32.83;;